Time;durP1;ratioP1;P1;durP2;ratioP2;P2;SDS_P1;SDS_P2;PMS_P1;PMS_P2;Temp;Humidity;BMP_temperature;BMP_pressure;BME280_temperature;BME280_humidity;BME280_pressure;Samples;Min_cycle;Max_cycle;Signal;HPM_P1;HPM_P2
2022/10/24 00:01:17;;;;;;;2.08;1.30;;;;;;;;;;4992034;28;20215;-63
2022/10/24 00:03:44;;;;;;;4.10;1.55;;;;;;;;;;4985063;28;20381;-63
2022/10/24 00:06:12;;;;;;;4.38;1.45;;;;;;;;;;4986010;28;20654;-62
2022/10/24 00:08:41;;;;;;;4.60;1.90;;;;;;;;;;4987134;28;20263;-64
2022/10/24 00:11:13;;;;;;;3.10;1.73;;;;;;;;;;4981534;28;20950;-62
2022/10/24 00:13:41;;;;;;;3.50;1.83;;;;;;;;;;4979571;28;20330;-63
2022/10/24 00:16:08;;;;;;;2.28;1.60;;;;;;;;;;4981139;28;20200;-63
2022/10/24 00:18:36;;;;;;;5.63;1.67;;;;;;;;;;4998565;28;21018;-62
2022/10/24 00:21:04;;;;;;;3.78;1.70;;;;;;;;;;4982470;28;20761;-63
2022/10/24 00:23:31;;;;;;;5.00;1.70;;;;;;;;;;4980771;28;20725;-61
2022/10/24 00:26:02;;;;;;;2.35;1.90;;;;;;;;;;4980442;28;20214;-61
2022/10/24 00:28:34;;;;;;;3.80;1.77;;;;;;;;;;4985176;28;20712;-63
2022/10/24 00:31:02;;;;;;;3.80;1.70;;;;;;;;;;4984902;28;20871;-63
2022/10/24 00:33:29;;;;;;;3.38;1.90;;;;;;;;;;4980670;28;20199;-63
2022/10/24 00:35:56;;;;;;;5.00;2.20;;;;;;;;;;4994398;28;20290;-63
2022/10/24 00:38:24;;;;;;;3.45;1.75;;;;;;;;;;4979336;28;20223;-63
2022/10/24 00:40:51;;;;;;;4.00;2.33;;;;;;;;;;4980016;28;20211;-63
2022/10/24 00:43:20;;;;;;;4.07;1.92;;;;;;;;;;4982583;28;20291;-63
2022/10/24 00:45:51;;;;;;;8.50;2.00;;;;;;;;;;4983270;28;21340;-62
2022/10/24 00:48:24;;;;;;;6.13;2.20;;;;;;;;;;4988072;28;20277;-63
2022/10/24 00:51:12;;;;;;;4.90;1.67;;;;;;;;;;4986040;28;20227;-63
2022/10/24 00:53:42;;;;;;;3.15;1.95;;;;;;;;;;4976201;28;20200;-62
2022/10/24 00:56:11;;;;;;;7.10;2.27;;;;;;;;;;4979607;28;20211;-62
2022/10/24 00:58:38;;;;;;;7.03;2.00;;;;;;;;;;4981424;28;20873;-62
2022/10/24 01:01:07;;;;;;;4.22;2.30;;;;;;;;;;4984532;28;20218;-63
2022/10/24 01:03:35;;;;;;;4.95;1.88;;;;;;;;;;4984021;28;20290;-62
2022/10/24 01:06:23;;;;;;;4.07;1.60;;;;;;;;;;4984642;28;20214;-62
2022/10/24 01:08:57;;;;;;;6.57;2.03;;;;;;;;;;4973363;28;20229;-62
2022/10/24 01:11:37;;;;;;;5.57;2.15;;;;;;;;;;4977059;28;20218;-62
2022/10/24 01:14:13;;;;;;;4.47;1.92;;;;;;;;;;4983996;28;20302;-63
2022/10/24 01:16:45;;;;;;;5.82;1.80;;;;;;;;;;4981665;28;20209;-61
2022/10/24 01:19:19;;;;;;;5.07;2.10;;;;;;;;;;4976156;28;20229;-61
2022/10/24 01:21:52;;;;;;;3.22;1.65;;;;;;;;;;4979007;28;20693;-62
2022/10/24 01:24:28;;;;;;;5.50;1.80;;;;;;;;;;4989741;28;20210;-62
2022/10/24 01:27:11;;;;;;;5.10;1.80;;;;;;;;;;4979301;28;20290;-63
2022/10/24 01:29:42;;;;;;;9.27;2.30;;;;;;;;;;4988599;28;20719;-64
2022/10/24 01:32:09;;;;;;;6.32;2.22;;;;;;;;;;4978976;28;20207;-63
2022/10/24 01:34:46;;;;;;;4.35;2.15;;;;;;;;;;4977661;28;20634;-63
2022/10/24 01:37:28;;;;;;;6.05;2.17;;;;;;;;;;4990639;28;20257;-63
2022/10/24 01:39:59;;;;;;;4.68;2.38;;;;;;;;;;4994749;28;20215;-62
2022/10/24 01:42:27;;;;;;;6.88;2.35;;;;;;;;;;4999687;28;20302;-62
2022/10/24 01:44:56;;;;;;;5.82;2.35;;;;;;;;;;4978507;28;20211;-62
2022/10/24 01:47:26;;;;;;;8.38;2.30;;;;;;;;;;4983185;28;20576;-62
2022/10/24 01:49:56;;;;;;;5.00;2.03;;;;;;;;;;4986165;28;20220;-61
2022/10/24 01:52:25;;;;;;;7.38;2.33;;;;;;;;;;5001552;28;20202;-62
2022/10/24 01:54:52;;;;;;;3.28;2.03;;;;;;;;;;4979815;28;20208;-63
2022/10/24 01:57:19;;;;;;;4.43;2.45;;;;;;;;;;4977311;28;20287;-63
2022/10/24 01:59:47;;;;;;;6.55;2.25;;;;;;;;;;4986970;28;20723;-63
2022/10/24 02:02:17;;;;;;;3.40;1.98;;;;;;;;;;5008980;28;20203;-64
2022/10/24 02:04:51;;;;;;;5.80;1.92;;;;;;;;;;5000885;28;20291;-61
2022/10/24 02:07:19;;;;;;;5.55;2.30;;;;;;;;;;4999842;28;20214;-62
2022/10/24 02:09:49;;;;;;;7.05;2.17;;;;;;;;;;4981328;28;20226;-62
2022/10/24 02:12:18;;;;;;;5.53;2.30;;;;;;;;;;4985766;28;20346;-63
2022/10/24 02:14:48;;;;;;;7.05;2.20;;;;;;;;;;4978773;28;20299;-63
2022/10/24 02:17:16;;;;;;;5.68;2.45;;;;;;;;;;4977620;28;20212;-62
2022/10/24 02:19:44;;;;;;;5.55;1.98;;;;;;;;;;4981862;28;20301;-63
2022/10/24 02:22:26;;;;;;;5.65;2.35;;;;;;;;;;4975042;28;20446;-63
2022/10/24 02:24:56;;;;;;;7.30;1.95;;;;;;;;;;4983379;28;20259;-62
2022/10/24 02:27:59;;;;;;;6.70;2.20;;;;;;;;;;4994604;28;20243;-62
2022/10/24 02:30:28;;;;;;;5.00;2.33;;;;;;;;;;4918042;29;20765;-62
2022/10/24 02:32:57;;;;;;;5.32;2.20;;;;;;;;;;4989896;28;20210;-62
2022/10/24 02:35:26;;;;;;;4.75;2.65;;;;;;;;;;4973827;28;20210;-63
2022/10/24 02:37:56;;;;;;;7.82;2.25;;;;;;;;;;4999215;28;20295;-62
2022/10/24 02:40:24;;;;;;;7.80;2.45;;;;;;;;;;5001619;28;20210;-62
2022/10/24 02:42:53;;;;;;;7.55;2.90;;;;;;;;;;4985474;28;20629;-62
2022/10/24 02:45:21;;;;;;;7.15;2.55;;;;;;;;;;4970337;28;20597;-62
2022/10/24 02:47:51;;;;;;;7.00;2.30;;;;;;;;;;4990215;28;20346;-62
2022/10/24 02:50:19;;;;;;;6.30;2.72;;;;;;;;;;4976682;28;20227;-62
2022/10/24 02:52:46;;;;;;;7.82;2.80;;;;;;;;;;4978975;28;20352;-62
2022/10/24 02:55:14;;;;;;;6.72;2.35;;;;;;;;;;4986165;28;20208;-62
2022/10/24 02:57:41;;;;;;;4.32;2.42;;;;;;;;;;5000602;28;20247;-62
2022/10/24 03:00:09;;;;;;;6.55;3.17;;;;;;;;;;5001362;28;20227;-62
2022/10/24 03:02:36;;;;;;;8.13;2.88;;;;;;;;;;4982557;28;20829;-62
2022/10/24 03:05:03;;;;;;;5.00;2.83;;;;;;;;;;4977668;28;20271;-62
2022/10/24 03:07:31;;;;;;;6.07;2.65;;;;;;;;;;4984781;28;20338;-62
2022/10/24 03:09:58;;;;;;;6.63;2.60;;;;;;;;;;4983824;28;20314;-62
2022/10/24 03:12:26;;;;;;;10.15;2.80;;;;;;;;;;4979244;28;20318;-62
2022/10/24 03:14:53;;;;;;;7.38;2.45;;;;;;;;;;4977459;28;20227;-62
2022/10/24 03:17:22;;;;;;;7.78;2.60;;;;;;;;;;4981907;28;20243;-62
2022/10/24 03:19:49;;;;;;;9.80;2.60;;;;;;;;;;4975183;28;20318;-63
2022/10/24 03:22:16;;;;;;;5.32;2.90;;;;;;;;;;4967367;28;21230;-63
2022/10/24 03:24:43;;;;;;;6.57;2.75;;;;;;;;;;4963452;28;20215;-63
2022/10/24 03:27:21;;;;;;;4.45;2.80;;;;;;;;;;4974238;28;20299;-62
2022/10/24 03:29:49;;;;;;;5.63;2.58;;;;;;;;;;4991156;28;20263;-62
2022/10/24 03:32:16;;;;;;;6.13;2.70;;;;;;;;;;4985561;28;20330;-62
2022/10/24 03:34:43;;;;;;;7.78;2.28;;;;;;;;;;4979667;28;20208;-63
2022/10/24 03:37:11;;;;;;;7.95;2.80;;;;;;;;;;4986609;28;20286;-62
2022/10/24 03:39:39;;;;;;;8.43;3.25;;;;;;;;;;5003287;28;20583;-62
2022/10/24 03:42:06;;;;;;;6.35;2.90;;;;;;;;;;5001882;28;20204;-62
2022/10/24 03:44:33;;;;;;;9.20;2.88;;;;;;;;;;4984009;28;20385;-63
2022/10/24 03:47:00;;;;;;;5.93;2.83;;;;;;;;;;4982548;28;20301;-62
2022/10/24 03:49:28;;;;;;;4.53;2.30;;;;;;;;;;5004630;28;20228;-62
2022/10/24 03:51:55;;;;;;;5.85;2.75;;;;;;;;;;4998935;28;20693;-61
2022/10/24 03:54:22;;;;;;;6.30;3.20;;;;;;;;;;4988300;28;20238;-63
2022/10/24 03:56:50;;;;;;;6.93;2.35;;;;;;;;;;4986475;28;20286;-62
2022/10/24 03:59:17;;;;;;;11.60;3.20;;;;;;;;;;4978432;28;20230;-63
2022/10/24 04:01:44;;;;;;;8.97;2.47;;;;;;;;;;4978084;28;20222;-63
2022/10/24 04:04:12;;;;;;;7.88;2.70;;;;;;;;;;4969874;28;20239;-63
2022/10/24 04:06:39;;;;;;;7.53;3.00;;;;;;;;;;4977942;28;20326;-62
2022/10/24 04:09:07;;;;;;;7.43;3.03;;;;;;;;;;4985696;28;20246;-63
2022/10/24 04:11:36;;;;;;;9.23;3.03;;;;;;;;;;4980024;28;20711;-63
2022/10/24 04:14:04;;;;;;;11.53;3.27;;;;;;;;;;5000624;28;20696;-63
2022/10/24 04:16:33;;;;;;;7.03;2.70;;;;;;;;;;4982172;28;20911;-63
2022/10/24 04:19:01;;;;;;;8.48;2.75;;;;;;;;;;4985157;28;20274;-63
2022/10/24 04:21:28;;;;;;;6.95;2.47;;;;;;;;;;4984007;28;20376;-63
2022/10/24 04:23:56;;;;;;;5.70;2.77;;;;;;;;;;4987627;28;20239;-62
2022/10/24 04:26:24;;;;;;;6.93;2.83;;;;;;;;;;4983700;28;20212;-63
2022/10/24 04:28:51;;;;;;;9.38;2.58;;;;;;;;;;4985655;28;20231;-62
2022/10/24 04:31:18;;;;;;;4.80;2.50;;;;;;;;;;4983010;28;20231;-62
2022/10/24 04:33:49;;;;;;;6.82;2.95;;;;;;;;;;4982709;28;20200;-63
2022/10/24 04:36:17;;;;;;;8.82;3.10;;;;;;;;;;4983332;28;20231;-63
2022/10/24 04:38:44;;;;;;;4.05;2.75;;;;;;;;;;4999741;28;20293;-62
2022/10/24 04:41:12;;;;;;;6.47;3.33;;;;;;;;;;4982019;28;20218;-62
2022/10/24 04:43:39;;;;;;;9.60;2.63;;;;;;;;;;4981300;28;20239;-62
2022/10/24 04:46:07;;;;;;;5.57;2.55;;;;;;;;;;4995146;28;20225;-62
2022/10/24 04:48:34;;;;;;;4.95;2.40;;;;;;;;;;4982134;28;20227;-62
2022/10/24 04:51:02;;;;;;;6.50;3.15;;;;;;;;;;4979995;28;20227;-62
2022/10/24 04:53:29;;;;;;;9.90;2.78;;;;;;;;;;4978948;28;20207;-62
2022/10/24 04:55:56;;;;;;;8.32;3.03;;;;;;;;;;4985395;28;20763;-62
2022/10/24 04:58:24;;;;;;;6.90;2.50;;;;;;;;;;4983604;28;20310;-62
2022/10/24 05:00:51;;;;;;;4.97;2.63;;;;;;;;;;4978586;28;20566;-62
2022/10/24 05:03:19;;;;;;;8.75;2.67;;;;;;;;;;4987692;28;20218;-63
2022/10/24 05:05:47;;;;;;;9.43;3.20;;;;;;;;;;5001457;28;20211;-63
2022/10/24 05:08:14;;;;;;;7.60;2.83;;;;;;;;;;4986172;28;20231;-62
2022/10/24 05:10:42;;;;;;;4.72;2.33;;;;;;;;;;4979067;28;20391;-62
2022/10/24 05:13:09;;;;;;;5.27;2.37;;;;;;;;;;4982256;28;20385;-63
2022/10/24 05:15:37;;;;;;;7.85;2.75;;;;;;;;;;4985155;28;20206;-62
2022/10/24 05:18:04;;;;;;;5.67;2.77;;;;;;;;;;4981832;28;20406;-62
2022/10/24 05:20:32;;;;;;;7.20;2.55;;;;;;;;;;4982484;28;20200;-63
2022/10/24 05:22:59;;;;;;;7.10;3.20;;;;;;;;;;4979459;28;20298;-63
2022/10/24 05:25:26;;;;;;;7.38;2.63;;;;;;;;;;4978493;28;20670;-61
2022/10/24 05:27:54;;;;;;;5.13;2.10;;;;;;;;;;4983247;28;20302;-62
2022/10/24 05:30:21;;;;;;;7.53;2.60;;;;;;;;;;4980096;28;20215;-63
2022/10/24 05:32:48;;;;;;;5.53;2.53;;;;;;;;;;4978682;28;20231;-62
2022/10/24 05:35:16;;;;;;;9.63;2.47;;;;;;;;;;4979387;28;20212;-62
2022/10/24 05:37:43;;;;;;;6.50;2.53;;;;;;;;;;4997326;28;20498;-63
2022/10/24 05:40:11;;;;;;;6.63;2.10;;;;;;;;;;4978871;28;20234;-63
2022/10/24 05:42:38;;;;;;;4.90;2.08;;;;;;;;;;4987872;28;20303;-63
2022/10/24 05:45:06;;;;;;;5.18;2.20;;;;;;;;;;4993846;28;20211;-62
2022/10/24 05:47:34;;;;;;;7.67;2.30;;;;;;;;;;4990006;28;20298;-62
2022/10/24 05:50:01;;;;;;;7.22;2.25;;;;;;;;;;4978076;28;21690;-63
2022/10/24 05:52:29;;;;;;;7.43;2.00;;;;;;;;;;4984464;28;20318;-63
2022/10/24 05:54:56;;;;;;;3.88;1.98;;;;;;;;;;4984752;28;20206;-63
2022/10/24 05:57:33;;;;;;;5.28;1.85;;;;;;;;;;4986973;28;20208;-62
2022/10/24 06:00:01;;;;;;;5.07;1.80;;;;;;;;;;4986496;28;20266;-63
2022/10/24 06:02:28;;;;;;;6.97;2.72;;;;;;;;;;4984962;28;20220;-62
2022/10/24 06:04:57;;;;;;;4.20;2.47;;;;;;;;;;4983051;28;20535;-62
2022/10/24 06:07:25;;;;;;;8.25;3.03;;;;;;;;;;4979718;28;20199;-61
2022/10/24 06:09:52;;;;;;;4.40;2.00;;;;;;;;;;4997985;28;20227;-64
2022/10/24 06:12:19;;;;;;;6.40;2.00;;;;;;;;;;4988637;28;20310;-63
2022/10/24 06:14:47;;;;;;;4.22;2.13;;;;;;;;;;4988718;28;20203;-62
2022/10/24 06:17:14;;;;;;;3.85;1.83;;;;;;;;;;4984640;28;20207;-62
2022/10/24 06:19:42;;;;;;;5.90;1.77;;;;;;;;;;4985813;28;20226;-62
2022/10/24 06:22:10;;;;;;;3.63;1.90;;;;;;;;;;4987315;28;20211;-63
2022/10/24 06:24:38;;;;;;;5.07;1.90;;;;;;;;;;4985372;28;20208;-63
2022/10/24 06:27:06;;;;;;;8.05;1.92;;;;;;;;;;5004521;28;20699;-62
2022/10/24 06:29:33;;;;;;;3.08;1.80;;;;;;;;;;4983929;28;20354;-63
2022/10/24 06:32:00;;;;;;;6.43;1.73;;;;;;;;;;4987506;28;20227;-62
2022/10/24 06:34:28;;;;;;;3.10;1.45;;;;;;;;;;5010334;28;20310;-62
2022/10/24 06:36:55;;;;;;;4.18;1.70;;;;;;;;;;4986467;28;20204;-62
2022/10/24 06:39:23;;;;;;;5.75;2.08;;;;;;;;;;4988576;28;20250;-62
2022/10/24 06:41:50;;;;;;;9.70;2.25;;;;;;;;;;5004715;28;20262;-63
2022/10/24 06:44:17;;;;;;;5.65;1.90;;;;;;;;;;4992775;28;20208;-65
2022/10/24 06:46:45;;;;;;;6.80;1.90;;;;;;;;;;4990606;28;20299;-63
2022/10/24 06:49:13;;;;;;;4.40;1.83;;;;;;;;;;4996286;28;20261;-63
2022/10/24 06:51:41;;;;;;;3.65;1.90;;;;;;;;;;4978828;28;20368;-62
2022/10/24 06:54:08;;;;;;;3.50;2.00;;;;;;;;;;4985767;28;20315;-62
2022/10/24 06:56:36;;;;;;;7.05;2.30;;;;;;;;;;4990693;28;20291;-62
2022/10/24 06:59:07;;;;;;;9.13;2.67;;;;;;;;;;4989144;28;20306;-62
2022/10/24 07:01:34;;;;;;;3.70;2.17;;;;;;;;;;4987596;28;20214;-63
2022/10/24 07:04:04;;;;;;;4.32;2.22;;;;;;;;;;5010713;28;20259;-62
2022/10/24 07:06:31;;;;;;;5.43;2.58;;;;;;;;;;4984618;28;20234;-63
2022/10/24 07:09:00;;;;;;;5.15;2.70;;;;;;;;;;4983758;28;20366;-63
2022/10/24 07:11:27;;;;;;;6.35;2.70;;;;;;;;;;4986144;28;20366;-63
2022/10/24 07:13:55;;;;;;;8.25;3.20;;;;;;;;;;4993475;28;20210;-63
2022/10/24 07:16:28;;;;;;;8.15;2.50;;;;;;;;;;4989790;28;20222;-64
2022/10/24 07:18:56;;;;;;;4.95;2.67;;;;;;;;;;4989430;28;20291;-64
2022/10/24 07:21:25;;;;;;;5.53;2.70;;;;;;;;;;4971266;28;20207;-63
2022/10/24 07:23:53;;;;;;;6.47;2.85;;;;;;;;;;4995717;28;20242;-62
2022/10/24 07:26:20;;;;;;;7.78;2.80;;;;;;;;;;4995204;28;20734;-63
2022/10/24 07:28:53;;;;;;;8.77;3.20;;;;;;;;;;4977799;28;20223;-62
2022/10/24 07:31:22;;;;;;;8.90;3.05;;;;;;;;;;4975136;28;20236;-64
2022/10/24 07:33:49;;;;;;;6.72;2.80;;;;;;;;;;4977886;28;20772;-63
2022/10/24 07:36:18;;;;;;;7.60;3.10;;;;;;;;;;4985718;28;20214;-63
2022/10/24 07:38:46;;;;;;;4.78;2.60;;;;;;;;;;4982250;28;20227;-63
2022/10/24 07:41:14;;;;;;;5.90;2.95;;;;;;;;;;5004348;28;20211;-63
2022/10/24 07:43:41;;;;;;;5.68;2.60;;;;;;;;;;4984614;28;20212;-63
2022/10/24 07:46:10;;;;;;;6.85;2.60;;;;;;;;;;4987512;28;20302;-62
2022/10/24 07:48:37;;;;;;;6.95;2.50;;;;;;;;;;4988061;28;20709;-63
2022/10/24 07:51:06;;;;;;;3.92;2.40;;;;;;;;;;4991287;28;20291;-63
2022/10/24 07:53:33;;;;;;;6.10;2.17;;;;;;;;;;4986415;28;20620;-64
2022/10/24 07:56:01;;;;;;;4.75;2.28;;;;;;;;;;4983031;28;20214;-63
2022/10/24 07:58:28;;;;;;;2.72;2.00;;;;;;;;;;4978341;28;20773;-63
2022/10/24 08:01:02;;;;;;;6.32;2.17;;;;;;;;;;4988215;28;20202;-63
2022/10/24 08:03:29;;;;;;;5.53;2.40;;;;;;;;;;5009050;28;20243;-64
2022/10/24 08:05:56;;;;;;;7.68;2.63;;;;;;;;;;4987231;28;20204;-63
2022/10/24 08:08:24;;;;;;;8.02;2.95;;;;;;;;;;5003929;28;20346;-63
2022/10/24 08:11:07;;;;;;;7.05;2.92;;;;;;;;;;4988641;28;20227;-63
2022/10/24 08:13:35;;;;;;;6.97;2.90;;;;;;;;;;4989977;28;20311;-62
2022/10/24 08:16:05;;;;;;;4.78;2.40;;;;;;;;;;4992920;28;20279;-63
2022/10/24 08:18:32;;;;;;;8.20;2.50;;;;;;;;;;4985956;28;20310;-63
2022/10/24 08:21:06;;;;;;;6.13;2.60;;;;;;;;;;4983260;28;20203;-62
2022/10/24 08:23:34;;;;;;;6.03;2.30;;;;;;;;;;4983298;28;20754;-62
2022/10/24 08:26:05;;;;;;;8.70;3.03;;;;;;;;;;4982319;28;20230;-63
2022/10/24 08:28:33;;;;;;;5.90;3.35;;;;;;;;;;4979740;28;20278;-62
2022/10/24 08:31:02;;;;;;;4.05;2.08;;;;;;;;;;4977031;28;20360;-63
2022/10/24 08:33:30;;;;;;;4.35;2.17;;;;;;;;;;4981487;28;20231;-62
2022/10/24 08:35:59;;;;;;;2.65;1.67;;;;;;;;;;5003390;28;20621;-62
2022/10/24 08:38:28;;;;;;;4.65;1.95;;;;;;;;;;4986177;28;20310;-62
2022/10/24 08:40:56;;;;;;;4.35;2.15;;;;;;;;;;4986408;28;20639;-63
2022/10/24 08:43:23;;;;;;;8.50;3.58;;;;;;;;;;4979123;28;20212;-63
2022/10/24 08:46:10;;;;;;;3.15;1.92;;;;;;;;;;5001775;28;20310;-63
2022/10/24 08:48:57;;;;;;;5.18;2.50;;;;;;;;;;4985326;28;20326;-63
2022/10/24 08:51:31;;;;;;;3.85;1.92;;;;;;;;;;4985437;28;20321;-63
2022/10/24 08:53:59;;;;;;;3.83;1.83;;;;;;;;;;5004165;28;20203;-63
2022/10/24 08:56:28;;;;;;;5.47;1.77;;;;;;;;;;4985952;28;20210;-63
2022/10/24 08:58:56;;;;;;;5.15;1.83;;;;;;;;;;4990093;28;20310;-63
2022/10/24 09:01:37;;;;;;;7.18;2.22;;;;;;;;;;4989192;28;20291;-62
2022/10/24 09:04:06;;;;;;;8.95;2.15;;;;;;;;;;5000816;28;20402;-62
2022/10/24 09:06:33;;;;;;;6.57;2.60;;;;;;;;;;4984571;28;20302;-63
2022/10/24 09:09:05;;;;;;;5.40;3.08;;;;;;;;;;4986895;28;20652;-62
2022/10/24 09:11:32;;;;;;;8.25;3.30;;;;;;;;;;5001938;28;20208;-62
2022/10/24 09:14:01;;;;;;;8.60;3.50;;;;;;;;;;4981657;28;20223;-63
2022/10/24 09:16:29;;;;;;;6.80;2.50;;;;;;;;;;5015298;28;20655;-62
2022/10/24 09:18:57;;;;;;;5.13;2.50;;;;;;;;;;4985341;28;20223;-61
2022/10/24 09:21:25;;;;;;;6.77;2.43;;;;;;;;;;5001191;28;20210;-64
2022/10/24 09:23:52;;;;;;;9.32;3.63;;;;;;;;;;4990407;28;20207;-63
2022/10/24 09:26:24;;;;;;;10.45;4.38;;;;;;;;;;5003447;28;20254;-63
2022/10/24 09:28:53;;;;;;;7.22;2.33;;;;;;;;;;4988900;28;20310;-63
2022/10/24 09:31:23;;;;;;;5.63;2.13;;;;;;;;;;4993430;28;20922;-63
2022/10/24 09:33:51;;;;;;;7.07;2.45;;;;;;;;;;4984375;28;20277;-63
2022/10/24 09:36:20;;;;;;;4.30;2.47;;;;;;;;;;4986428;28;20204;-63
2022/10/24 09:38:48;;;;;;;5.57;2.72;;;;;;;;;;4989805;28;20262;-63
2022/10/24 09:41:15;;;;;;;6.00;3.05;;;;;;;;;;4990423;28;20707;-63
2022/10/24 09:43:42;;;;;;;8.70;3.60;;;;;;;;;;4989573;28;20243;-63
2022/10/24 09:46:12;;;;;;;5.77;3.63;;;;;;;;;;4993348;28;20309;-62
2022/10/24 09:48:39;;;;;;;6.80;2.65;;;;;;;;;;4982476;28;20237;-63
2022/10/24 09:51:07;;;;;;;5.63;2.75;;;;;;;;;;4979174;28;20302;-63
2022/10/24 09:53:39;;;;;;;6.10;2.23;;;;;;;;;;4984850;28;20571;-64
2022/10/24 09:56:07;;;;;;;5.97;1.80;;;;;;;;;;4989563;28;20681;-63
2022/10/24 09:58:34;;;;;;;6.10;2.17;;;;;;;;;;4991803;28;20223;-63
2022/10/24 10:01:06;;;;;;;5.67;2.00;;;;;;;;;;5013299;28;20283;-64
2022/10/24 10:03:34;;;;;;;4.40;2.30;;;;;;;;;;5004754;28;20581;-63
2022/10/24 10:06:04;;;;;;;7.33;2.50;;;;;;;;;;4993012;28;20293;-63
2022/10/24 10:08:33;;;;;;;6.30;1.90;;;;;;;;;;4991594;28;20237;-63
2022/10/24 10:11:03;;;;;;;2.97;2.13;;;;;;;;;;4991385;28;20673;-63
2022/10/24 10:13:36;;;;;;;3.75;1.83;;;;;;;;;;4987878;28;20235;-63
2022/10/24 10:16:06;;;;;;;3.27;1.87;;;;;;;;;;4984665;28;20311;-63
2022/10/24 10:18:38;;;;;;;6.40;2.07;;;;;;;;;;4996007;28;20223;-64
2022/10/24 10:21:11;;;;;;;5.63;2.15;;;;;;;;;;4995186;28;20301;-61
2022/10/24 10:23:38;;;;;;;3.70;1.90;;;;;;;;;;4998654;28;20286;-63
2022/10/24 10:26:12;;;;;;;5.33;2.03;;;;;;;;;;4972358;28;20216;-62
2022/10/24 10:28:47;;;;;;;4.60;2.10;;;;;;;;;;4978903;28;20273;-64
2022/10/24 10:31:16;;;;;;;5.37;1.90;;;;;;;;;;4974632;28;20203;-63
2022/10/24 10:33:47;;;;;;;3.65;1.90;;;;;;;;;;4978028;28;20774;-62
2022/10/24 10:36:15;;;;;;;2.65;1.92;;;;;;;;;;4988003;28;20195;-63
2022/10/24 10:38:48;;;;;;;2.55;1.70;;;;;;;;;;4981364;28;20399;-63
2022/10/24 10:41:34;;;;;;;2.40;1.70;;;;;;;;;;4976956;28;20328;-62
2022/10/24 10:44:10;;;;;;;1.88;1.60;;;;;;;;;;4973607;28;20625;-64
2022/10/24 10:46:48;;;;;;;2.47;1.90;;;;;;;;;;4984256;28;20297;-62
2022/10/24 10:49:17;;;;;;;3.53;1.40;;;;;;;;;;4994222;28;20250;-64
2022/10/24 10:52:05;;;;;;;2.58;1.58;;;;;;;;;;4982355;28;20717;-63
2022/10/24 10:54:32;;;;;;;4.30;1.57;;;;;;;;;;4980175;28;20306;-63
2022/10/24 10:57:02;;;;;;;5.47;1.70;;;;;;;;;;4986639;28;20377;-63
2022/10/24 10:59:35;;;;;;;2.13;1.40;;;;;;;;;;4979162;28;20322;-63
2022/10/24 11:02:21;;;;;;;2.15;1.70;;;;;;;;;;4986097;28;20214;-63
2022/10/24 11:04:53;;;;;;;3.90;1.70;;;;;;;;;;4983469;28;20203;-63
2022/10/24 11:07:30;;;;;;;1.77;1.60;;;;;;;;;;4972815;28;21476;-63
2022/10/24 11:09:59;;;;;;;3.70;1.60;;;;;;;;;;4990038;28;21037;-62
2022/10/24 11:12:37;;;;;;;1.67;1.35;;;;;;;;;;4983623;28;20204;-63
2022/10/24 11:15:40;;;;;;;2.93;1.30;;;;;;;;;;5003217;28;20207;-63
2022/10/24 11:18:12;;;;;;;5.67;1.60;;;;;;;;;;4899757;29;20213;-63
2022/10/24 11:20:39;;;;;;;4.03;1.80;;;;;;;;;;4969392;28;20231;-63
2022/10/24 11:23:13;;;;;;;2.50;1.70;;;;;;;;;;4991766;28;20443;-64
2022/10/24 11:25:46;;;;;;;6.10;2.80;;;;;;;;;;4987459;28;20208;-64
2022/10/24 11:28:20;;;;;;;4.07;2.50;;;;;;;;;;4974535;28;20227;-62
2022/10/24 11:30:57;;;;;;;5.63;2.47;;;;;;;;;;4980067;28;20215;-62
2022/10/24 11:33:31;;;;;;;3.40;2.13;;;;;;;;;;5000925;28;20219;-63
2022/10/24 11:35:59;;;;;;;4.93;2.30;;;;;;;;;;4982509;28;20219;-63
2022/10/24 11:38:27;;;;;;;3.40;2.05;;;;;;;;;;4995353;28;20251;-63
2022/10/24 11:40:56;;;;;;;2.70;1.50;;;;;;;;;;4986840;28;20294;-63
2022/10/24 11:43:34;;;;;;;2.15;1.52;;;;;;;;;;4985266;28;20238;-63
2022/10/24 11:46:21;;;;;;;4.82;1.63;;;;;;;;;;4989354;28;20242;-63
2022/10/24 11:48:55;;;;;;;1.80;1.20;;;;;;;;;;4986285;28;20310;-63
2022/10/24 11:51:34;;;;;;;2.85;1.50;;;;;;;;;;4981772;28;20303;-62
2022/10/24 11:54:11;;;;;;;3.50;1.20;;;;;;;;;;4991639;28;20327;-63
2022/10/24 11:56:53;;;;;;;2.80;1.42;;;;;;;;;;4988037;28;20281;-64
2022/10/24 11:59:23;;;;;;;2.25;1.40;;;;;;;;;;5004761;28;20324;-63
2022/10/24 12:01:57;;;;;;;2.83;1.40;;;;;;;;;;4989914;28;20200;-64
2022/10/24 12:04:31;;;;;;;1.48;1.33;;;;;;;;;;5006865;28;20518;-64
2022/10/24 12:07:17;;;;;;;4.07;1.33;;;;;;;;;;4988643;28;20235;-62
2022/10/24 12:09:44;;;;;;;2.42;1.23;;;;;;;;;;4983065;28;20362;-63
2022/10/24 12:12:12;;;;;;;1.35;1.20;;;;;;;;;;4986486;28;20239;-63
2022/10/24 12:14:50;;;;;;;1.88;1.30;;;;;;;;;;4989626;28;20318;-64
2022/10/24 12:17:20;;;;;;;2.63;1.40;;;;;;;;;;4992341;28;20212;-64
2022/10/24 12:19:49;;;;;;;4.00;1.27;;;;;;;;;;4987907;28;20231;-63
2022/10/24 12:22:22;;;;;;;3.67;1.52;;;;;;;;;;4982609;28;20261;-63
2022/10/24 12:25:01;;;;;;;4.13;1.38;;;;;;;;;;4997341;28;20321;-64
2022/10/24 12:27:37;;;;;;;1.45;1.20;;;;;;;;;;4981890;28;20302;-63
2022/10/24 12:30:15;;;;;;;2.63;1.70;;;;;;;;;;4990896;28;20652;-63
2022/10/24 12:32:45;;;;;;;2.05;1.23;;;;;;;;;;4991850;28;20235;-63
2022/10/24 12:35:33;;;;;;;2.28;1.48;;;;;;;;;;4992856;28;20643;-63
2022/10/24 12:38:01;;;;;;;3.72;2.92;;;;;;;;;;4983681;28;20243;-64
2022/10/24 12:40:47;;;;;;;4.70;3.25;;;;;;;;;;4985359;28;20773;-63
2022/10/24 12:43:35;;;;;;;4.88;1.88;;;;;;;;;;4986496;28;20204;-63
2022/10/24 12:46:14;;;;;;;2.05;1.13;;;;;;;;;;4993832;28;20306;-62
2022/10/24 12:48:58;;;;;;;3.67;2.22;;;;;;;;;;4986961;28;20305;-63
2022/10/24 12:51:26;;;;;;;2.97;1.30;;;;;;;;;;4984796;28;20584;-62
2022/10/24 12:53:56;;;;;;;2.40;1.60;;;;;;;;;;4990047;28;20508;-63
2022/10/24 12:56:24;;;;;;;2.03;1.25;;;;;;;;;;4989783;28;20723;-63
2022/10/24 12:58:57;;;;;;;3.50;2.42;;;;;;;;;;4984484;28;20227;-63
2022/10/24 13:01:32;;;;;;;2.50;1.40;;;;;;;;;;4988376;28;20281;-62
2022/10/24 13:04:00;;;;;;;1.73;1.63;;;;;;;;;;4986340;28;20574;-63
2022/10/24 13:06:45;;;;;;;2.63;1.30;;;;;;;;;;4988991;28;20239;-62
2022/10/24 13:09:40;;;;;;;4.38;2.17;;;;;;;;;;4984866;28;20251;-62
2022/10/24 13:12:07;;;;;;;1.75;1.40;;;;;;;;;;4988019;28;20768;-63
2022/10/24 13:14:38;;;;;;;2.35;1.27;;;;;;;;;;4987664;28;20454;-63
2022/10/24 13:17:13;;;;;;;2.15;1.65;;;;;;;;;;4986231;28;20858;-63
2022/10/24 13:19:40;;;;;;;1.63;1.23;;;;;;;;;;4986252;28;20265;-63
2022/10/24 13:22:28;;;;;;;1.85;1.30;;;;;;;;;;4990084;28;20684;-63
2022/10/24 13:24:56;;;;;;;2.53;1.60;;;;;;;;;;4990112;28;20286;-62
2022/10/24 13:27:25;;;;;;;3.85;1.90;;;;;;;;;;4982106;28;20299;-63
2022/10/24 13:29:53;;;;;;;3.60;1.80;;;;;;;;;;4990360;28;20727;-63
2022/10/24 13:32:21;;;;;;;3.60;1.80;;;;;;;;;;4980608;28;20215;-63
2022/10/24 13:34:48;;;;;;;1.88;1.45;;;;;;;;;;4985406;28;20318;-62
2022/10/24 13:37:20;;;;;;;2.58;1.52;;;;;;;;;;4997860;28;20246;-63
2022/10/24 13:39:50;;;;;;;3.53;1.55;;;;;;;;;;4981741;28;20317;-62
2022/10/24 13:42:22;;;;;;;3.03;1.95;;;;;;;;;;5004542;28;20231;-63
2022/10/24 13:44:51;;;;;;;2.83;1.88;;;;;;;;;;4984251;28;20310;-64
2022/10/24 13:47:19;;;;;;;2.70;2.00;;;;;;;;;;4990866;28;20712;-62
2022/10/24 13:49:51;;;;;;;1.73;1.40;;;;;;;;;;4998296;28;20253;-62
2022/10/24 13:52:21;;;;;;;2.83;1.70;;;;;;;;;;4983440;28;20295;-63
2022/10/24 13:54:50;;;;;;;5.57;1.70;;;;;;;;;;4982703;28;23711;-63
2022/10/24 13:57:24;;;;;;;2.17;1.95;;;;;;;;;;5003228;28;20207;-63
2022/10/24 13:59:55;;;;;;;3.83;1.80;;;;;;;;;;5006134;28;20255;-63
2022/10/24 14:02:24;;;;;;;2.60;2.00;;;;;;;;;;4983328;28;20291;-63
2022/10/24 14:04:57;;;;;;;9.13;4.38;;;;;;;;;;5000328;28;20217;-61
2022/10/24 14:07:27;;;;;;;11.73;6.22;;;;;;;;;;4979367;28;20212;-64
2022/10/24 14:09:58;;;;;;;2.23;1.93;;;;;;;;;;4986264;28;20224;-62
2022/10/24 14:12:27;;;;;;;2.60;1.70;;;;;;;;;;5000328;28;20210;-61
2022/10/24 14:14:56;;;;;;;2.50;1.90;;;;;;;;;;4970593;28;20245;-62
2022/10/24 14:17:27;;;;;;;2.38;2.15;;;;;;;;;;4979303;28;20804;-63
2022/10/24 14:19:58;;;;;;;3.40;3.10;;;;;;;;;;4992572;28;20247;-62
2022/10/24 14:22:28;;;;;;;4.82;2.55;;;;;;;;;;4975675;28;20280;-62
2022/10/24 14:24:56;;;;;;;5.57;2.75;;;;;;;;;;4968220;28;20690;-62
2022/10/24 14:27:24;;;;;;;2.67;2.45;;;;;;;;;;4979676;28;20230;-62
2022/10/24 14:29:53;;;;;;;3.03;1.95;;;;;;;;;;4991088;28;20223;-63
2022/10/24 14:32:20;;;;;;;4.60;3.55;;;;;;;;;;4973914;28;20438;-62
2022/10/24 14:34:49;;;;;;;6.28;2.55;;;;;;;;;;4989077;28;20274;-62
2022/10/24 14:37:22;;;;;;;3.85;2.15;;;;;;;;;;4979622;28;20289;-63
2022/10/24 14:39:50;;;;;;;5.57;2.42;;;;;;;;;;4984629;28;20258;-62
2022/10/24 14:42:18;;;;;;;2.92;2.20;;;;;;;;;;4986607;28;20415;-62
2022/10/24 14:44:46;;;;;;;4.28;2.28;;;;;;;;;;4971405;28;20299;-62
2022/10/24 14:47:16;;;;;;;4.45;2.65;;;;;;;;;;4980447;28;20239;-62
2022/10/24 14:49:43;;;;;;;4.80;2.55;;;;;;;;;;4979574;28;20233;-63
2022/10/24 14:52:14;;;;;;;2.55;2.35;;;;;;;;;;4975127;28;20222;-62
2022/10/24 14:54:42;;;;;;;5.50;2.25;;;;;;;;;;4977940;28;21620;-62
2022/10/24 14:57:18;;;;;;;3.45;2.20;;;;;;;;;;4982261;28;20212;-63
2022/10/24 14:59:46;;;;;;;2.95;1.95;;;;;;;;;;4973804;28;20246;-62
2022/10/24 15:02:13;;;;;;;3.38;1.90;;;;;;;;;;4999991;28;20318;-63